sensor_id;sensor_type;location;lat;lon;timestamp;P1;durP1;ratioP1;P2;durP2;ratioP2
66856;SDS011;53766;50.280;19.160;2023-06-26T00:00:36;8.88;;;5.10;;
66856;SDS011;53766;50.280;19.160;2023-06-26T00:03:25;7.53;;;5.20;;
66856;SDS011;53766;50.280;19.160;2023-06-26T00:05:52;7.45;;;5.10;;
66856;SDS011;53766;50.280;19.160;2023-06-26T00:08:19;6.60;;;4.80;;
66856;SDS011;53766;50.280;19.160;2023-06-26T00:10:47;8.68;;;5.50;;
66856;SDS011;53766;50.280;19.160;2023-06-26T00:13:17;6.18;;;4.47;;
66856;SDS011;53766;50.280;19.160;2023-06-26T00:15:44;9.02;;;5.22;;
66856;SDS011;53766;50.280;19.160;2023-06-26T00:18:12;7.03;;;5.30;;
66856;SDS011;53766;50.280;19.160;2023-06-26T00:20:39;8.15;;;5.60;;
66856;SDS011;53766;50.280;19.160;2023-06-26T00:23:07;9.68;;;5.78;;
66856;SDS011;53766;50.280;19.160;2023-06-26T00:25:35;11.57;;;5.40;;
66856;SDS011;53766;50.280;19.160;2023-06-26T00:28:03;6.30;;;5.00;;
66856;SDS011;53766;50.280;19.160;2023-06-26T00:30:30;7.18;;;5.13;;
66856;SDS011;53766;50.280;19.160;2023-06-26T00:32:58;8.77;;;5.50;;
66856;SDS011;53766;50.280;19.160;2023-06-26T00:35:25;7.65;;;5.38;;
66856;SDS011;53766;50.280;19.160;2023-06-26T00:37:53;6.15;;;4.72;;
66856;SDS011;53766;50.280;19.160;2023-06-26T00:40:20;9.48;;;5.32;;
66856;SDS011;53766;50.280;19.160;2023-06-26T00:42:49;11.75;;;5.78;;
66856;SDS011;53766;50.280;19.160;2023-06-26T00:45:17;8.05;;;5.63;;
66856;SDS011;53766;50.280;19.160;2023-06-26T00:48:00;9.10;;;5.38;;
66856;SDS011;53766;50.280;19.160;2023-06-26T00:50:28;8.68;;;5.57;;
66856;SDS011;53766;50.280;19.160;2023-06-26T00:52:56;7.30;;;5.53;;
66856;SDS011;53766;50.280;19.160;2023-06-26T00:55:27;8.95;;;5.45;;
66856;SDS011;53766;50.280;19.160;2023-06-26T00:57:55;8.52;;;5.68;;
66856;SDS011;53766;50.280;19.160;2023-06-26T01:00:22;7.30;;;5.13;;
66856;SDS011;53766;50.280;19.160;2023-06-26T01:02:50;8.80;;;5.75;;
66856;SDS011;53766;50.280;19.160;2023-06-26T01:05:18;9.30;;;5.50;;
66856;SDS011;53766;50.280;19.160;2023-06-26T01:07:48;9.35;;;5.68;;
66856;SDS011;53766;50.280;19.160;2023-06-26T01:10:19;12.70;;;5.40;;
66856;SDS011;53766;50.280;19.160;2023-06-26T01:12:46;9.30;;;5.75;;
66856;SDS011;53766;50.280;19.160;2023-06-26T01:15:14;7.78;;;5.75;;
66856;SDS011;53766;50.280;19.160;2023-06-26T01:17:42;8.77;;;5.75;;
66856;SDS011;53766;50.280;19.160;2023-06-26T01:20:12;8.45;;;5.55;;
66856;SDS011;53766;50.280;19.160;2023-06-26T01:28:25;7.75;;;5.18;;
66856;SDS011;53766;50.280;19.160;2023-06-26T01:30:54;7.90;;;5.60;;
66856;SDS011;53766;50.280;19.160;2023-06-26T01:33:22;9.10;;;6.20;;
66856;SDS011;53766;50.280;19.160;2023-06-26T01:35:50;8.45;;;6.13;;
66856;SDS011;53766;50.280;19.160;2023-06-26T01:38:19;8.82;;;6.00;;
66856;SDS011;53766;50.280;19.160;2023-06-26T01:40:47;10.82;;;6.32;;
66856;SDS011;53766;50.280;19.160;2023-06-26T01:47:02;7.82;;;5.60;;
66856;SDS011;53766;50.280;19.160;2023-06-26T01:51:30;8.68;;;5.60;;
66856;SDS011;53766;50.280;19.160;2023-06-26T01:54:03;10.40;;;5.90;;
66856;SDS011;53766;50.280;19.160;2023-06-26T01:56:35;9.70;;;5.85;;
66856;SDS011;53766;50.280;19.160;2023-06-26T01:59:07;9.32;;;5.38;;
66856;SDS011;53766;50.280;19.160;2023-06-26T02:01:36;10.80;;;5.90;;
66856;SDS011;53766;50.280;19.160;2023-06-26T02:04:04;7.38;;;5.50;;
66856;SDS011;53766;50.280;19.160;2023-06-26T02:06:31;9.75;;;5.93;;
66856;SDS011;53766;50.280;19.160;2023-06-26T02:08:59;10.13;;;6.10;;
66856;SDS011;53766;50.280;19.160;2023-06-26T02:11:27;9.50;;;5.70;;
66856;SDS011;53766;50.280;19.160;2023-06-26T02:13:55;7.78;;;6.10;;
66856;SDS011;53766;50.280;19.160;2023-06-26T02:16:22;8.07;;;5.30;;
66856;SDS011;53766;50.280;19.160;2023-06-26T02:18:50;10.00;;;5.88;;
66856;SDS011;53766;50.280;19.160;2023-06-26T02:21:17;8.43;;;5.93;;
66856;SDS011;53766;50.280;19.160;2023-06-26T02:23:45;10.93;;;5.70;;
66856;SDS011;53766;50.280;19.160;2023-06-26T02:26:12;7.30;;;5.53;;
66856;SDS011;53766;50.280;19.160;2023-06-26T02:28:40;11.85;;;5.85;;
66856;SDS011;53766;50.280;19.160;2023-06-26T02:31:07;8.25;;;5.55;;
66856;SDS011;53766;50.280;19.160;2023-06-26T02:33:35;11.00;;;5.65;;
66856;SDS011;53766;50.280;19.160;2023-06-26T02:36:03;8.75;;;5.85;;
66856;SDS011;53766;50.280;19.160;2023-06-26T02:38:31;13.30;;;5.93;;
66856;SDS011;53766;50.280;19.160;2023-06-26T02:40:58;11.05;;;5.70;;
66856;SDS011;53766;50.280;19.160;2023-06-26T02:43:26;10.98;;;5.70;;
66856;SDS011;53766;50.280;19.160;2023-06-26T02:45:53;9.45;;;6.05;;
66856;SDS011;53766;50.280;19.160;2023-06-26T02:48:21;9.75;;;5.72;;
66856;SDS011;53766;50.280;19.160;2023-06-26T02:50:48;9.82;;;5.53;;
66856;SDS011;53766;50.280;19.160;2023-06-26T02:53:16;8.43;;;5.93;;
66856;SDS011;53766;50.280;19.160;2023-06-26T02:55:43;8.05;;;5.40;;
66856;SDS011;53766;50.280;19.160;2023-06-26T02:58:10;11.52;;;6.30;;
66856;SDS011;53766;50.280;19.160;2023-06-26T03:00:38;9.40;;;5.68;;
66856;SDS011;53766;50.280;19.160;2023-06-26T03:03:09;9.95;;;5.40;;
66856;SDS011;53766;50.280;19.160;2023-06-26T03:05:36;8.10;;;5.53;;
66856;SDS011;53766;50.280;19.160;2023-06-26T03:08:04;8.15;;;5.55;;
66856;SDS011;53766;50.280;19.160;2023-06-26T03:10:32;8.43;;;5.38;;
66856;SDS011;53766;50.280;19.160;2023-06-26T03:12:59;8.98;;;5.60;;
66856;SDS011;53766;50.280;19.160;2023-06-26T03:15:27;11.10;;;6.13;;
66856;SDS011;53766;50.280;19.160;2023-06-26T03:17:55;8.80;;;5.55;;
66856;SDS011;53766;50.280;19.160;2023-06-26T03:20:22;9.75;;;5.70;;
66856;SDS011;53766;50.280;19.160;2023-06-26T03:22:50;8.77;;;5.95;;
66856;SDS011;53766;50.280;19.160;2023-06-26T03:25:17;10.43;;;6.35;;
66856;SDS011;53766;50.280;19.160;2023-06-26T03:27:46;10.85;;;6.20;;
66856;SDS011;53766;50.280;19.160;2023-06-26T03:30:13;10.63;;;5.78;;
66856;SDS011;53766;50.280;19.160;2023-06-26T03:32:41;10.02;;;6.10;;
66856;SDS011;53766;50.280;19.160;2023-06-26T03:35:08;10.00;;;5.90;;
66856;SDS011;53766;50.280;19.160;2023-06-26T03:37:36;8.20;;;5.78;;
66856;SDS011;53766;50.280;19.160;2023-06-26T03:40:03;10.70;;;5.90;;
66856;SDS011;53766;50.280;19.160;2023-06-26T03:42:32;11.23;;;5.82;;
66856;SDS011;53766;50.280;19.160;2023-06-26T03:44:59;11.80;;;6.43;;
66856;SDS011;53766;50.280;19.160;2023-06-26T03:47:27;10.45;;;5.90;;
66856;SDS011;53766;50.280;19.160;2023-06-26T03:49:54;8.52;;;5.80;;
66856;SDS011;53766;50.280;19.160;2023-06-26T03:52:22;9.35;;;6.28;;
66856;SDS011;53766;50.280;19.160;2023-06-26T03:54:50;9.60;;;6.13;;
66856;SDS011;53766;50.280;19.160;2023-06-26T03:57:18;10.07;;;6.30;;
66856;SDS011;53766;50.280;19.160;2023-06-26T03:59:45;10.15;;;6.00;;
66856;SDS011;53766;50.280;19.160;2023-06-26T04:02:13;9.68;;;6.30;;
66856;SDS011;53766;50.280;19.160;2023-06-26T04:04:41;10.32;;;6.20;;
66856;SDS011;53766;50.280;19.160;2023-06-26T04:07:08;10.57;;;6.10;;
66856;SDS011;53766;50.280;19.160;2023-06-26T04:09:36;8.23;;;5.80;;
66856;SDS011;53766;50.280;19.160;2023-06-26T04:12:05;8.82;;;6.05;;
66856;SDS011;53766;50.280;19.160;2023-06-26T04:14:33;8.63;;;5.72;;
66856;SDS011;53766;50.280;19.160;2023-06-26T04:17:01;11.43;;;6.55;;
66856;SDS011;53766;50.280;19.160;2023-06-26T04:19:30;10.68;;;6.35;;
66856;SDS011;53766;50.280;19.160;2023-06-26T04:21:57;9.18;;;5.90;;
66856;SDS011;53766;50.280;19.160;2023-06-26T04:24:25;9.80;;;5.95;;
66856;SDS011;53766;50.280;19.160;2023-06-26T04:26:52;8.52;;;6.07;;
66856;SDS011;53766;50.280;19.160;2023-06-26T04:29:20;12.10;;;5.90;;
66856;SDS011;53766;50.280;19.160;2023-06-26T04:31:48;11.70;;;5.80;;
66856;SDS011;53766;50.280;19.160;2023-06-26T04:34:15;8.45;;;5.57;;
66856;SDS011;53766;50.280;19.160;2023-06-26T04:36:43;10.02;;;6.32;;
66856;SDS011;53766;50.280;19.160;2023-06-26T04:39:15;11.60;;;6.38;;
66856;SDS011;53766;50.280;19.160;2023-06-26T04:41:42;11.80;;;6.55;;
66856;SDS011;53766;50.280;19.160;2023-06-26T04:44:11;9.73;;;6.18;;
66856;SDS011;53766;50.280;19.160;2023-06-26T04:46:39;10.88;;;6.32;;
66856;SDS011;53766;50.280;19.160;2023-06-26T04:49:08;13.23;;;7.25;;
66856;SDS011;53766;50.280;19.160;2023-06-26T04:51:36;10.25;;;7.20;;
66856;SDS011;53766;50.280;19.160;2023-06-26T04:54:07;11.88;;;7.45;;
66856;SDS011;53766;50.280;19.160;2023-06-26T04:56:36;13.20;;;7.13;;
66856;SDS011;53766;50.280;19.160;2023-06-26T04:59:03;10.65;;;6.80;;
66856;SDS011;53766;50.280;19.160;2023-06-26T05:01:31;15.02;;;6.93;;
66856;SDS011;53766;50.280;19.160;2023-06-26T05:03:59;12.70;;;7.43;;
66856;SDS011;53766;50.280;19.160;2023-06-26T05:06:26;10.77;;;7.18;;
66856;SDS011;53766;50.280;19.160;2023-06-26T05:08:54;15.57;;;7.28;;
66856;SDS011;53766;50.280;19.160;2023-06-26T05:11:21;12.13;;;6.35;;
66856;SDS011;53766;50.280;19.160;2023-06-26T05:13:50;12.40;;;7.38;;
66856;SDS011;53766;50.280;19.160;2023-06-26T05:16:18;12.02;;;7.20;;
66856;SDS011;53766;50.280;19.160;2023-06-26T05:18:45;11.77;;;7.10;;
66856;SDS011;53766;50.280;19.160;2023-06-26T05:21:13;12.52;;;6.95;;
66856;SDS011;53766;50.280;19.160;2023-06-26T05:23:40;12.65;;;7.13;;
66856;SDS011;53766;50.280;19.160;2023-06-26T05:26:08;13.95;;;7.65;;
66856;SDS011;53766;50.280;19.160;2023-06-26T05:28:36;23.20;;;7.53;;
66856;SDS011;53766;50.280;19.160;2023-06-26T05:31:04;24.10;;;6.78;;
66856;SDS011;53766;50.280;19.160;2023-06-26T05:33:34;27.90;;;8.07;;
66856;SDS011;53766;50.280;19.160;2023-06-26T05:36:04;26.42;;;7.72;;
66856;SDS011;53766;50.280;19.160;2023-06-26T05:38:33;13.18;;;7.22;;
66856;SDS011;53766;50.280;19.160;2023-06-26T05:41:01;20.20;;;7.15;;
66856;SDS011;53766;50.280;19.160;2023-06-26T05:43:28;13.55;;;7.47;;
66856;SDS011;53766;50.280;19.160;2023-06-26T05:45:56;18.02;;;7.20;;
66856;SDS011;53766;50.280;19.160;2023-06-26T05:48:27;16.63;;;7.68;;
66856;SDS011;53766;50.280;19.160;2023-06-26T05:50:55;13.43;;;7.18;;
66856;SDS011;53766;50.280;19.160;2023-06-26T05:53:22;15.07;;;7.03;;
66856;SDS011;53766;50.280;19.160;2023-06-26T05:55:51;15.52;;;7.38;;
66856;SDS011;53766;50.280;19.160;2023-06-26T05:58:18;12.13;;;6.57;;
66856;SDS011;53766;50.280;19.160;2023-06-26T06:00:47;20.85;;;7.05;;
66856;SDS011;53766;50.280;19.160;2023-06-26T06:03:15;15.35;;;7.03;;
66856;SDS011;53766;50.280;19.160;2023-06-26T06:05:42;13.10;;;7.25;;
66856;SDS011;53766;50.280;19.160;2023-06-26T06:08:10;14.05;;;6.70;;
66856;SDS011;53766;50.280;19.160;2023-06-26T06:10:37;12.55;;;6.93;;
66856;SDS011;53766;50.280;19.160;2023-06-26T06:13:05;12.35;;;7.07;;
66856;SDS011;53766;50.280;19.160;2023-06-26T06:15:33;14.27;;;7.40;;
66856;SDS011;53766;50.280;19.160;2023-06-26T06:18:00;12.75;;;7.47;;
66856;SDS011;53766;50.280;19.160;2023-06-26T06:20:28;11.95;;;6.53;;
66856;SDS011;53766;50.280;19.160;2023-06-26T06:22:55;12.25;;;7.18;;
66856;SDS011;53766;50.280;19.160;2023-06-26T06:25:23;11.77;;;6.55;;
66856;SDS011;53766;50.280;19.160;2023-06-26T06:27:50;15.88;;;7.57;;
66856;SDS011;53766;50.280;19.160;2023-06-26T06:30:18;12.35;;;6.88;;
66856;SDS011;53766;50.280;19.160;2023-06-26T06:33:01;11.60;;;6.50;;
66856;SDS011;53766;50.280;19.160;2023-06-26T06:35:29;12.68;;;6.43;;
66856;SDS011;53766;50.280;19.160;2023-06-26T06:37:56;12.52;;;6.40;;
66856;SDS011;53766;50.280;19.160;2023-06-26T06:40:24;11.77;;;6.50;;
66856;SDS011;53766;50.280;19.160;2023-06-26T06:42:52;12.15;;;6.50;;
66856;SDS011;53766;50.280;19.160;2023-06-26T06:45:20;11.15;;;6.32;;
66856;SDS011;53766;50.280;19.160;2023-06-26T06:47:47;12.82;;;6.47;;
66856;SDS011;53766;50.280;19.160;2023-06-26T06:50:15;10.27;;;6.55;;
66856;SDS011;53766;50.280;19.160;2023-06-26T06:52:45;9.93;;;6.20;;
66856;SDS011;53766;50.280;19.160;2023-06-26T06:55:12;10.02;;;6.50;;
66856;SDS011;53766;50.280;19.160;2023-06-26T06:57:40;14.35;;;6.90;;
66856;SDS011;53766;50.280;19.160;2023-06-26T07:00:09;13.07;;;6.97;;
66856;SDS011;53766;50.280;19.160;2023-06-26T07:02:38;13.63;;;6.63;;
66856;SDS011;53766;50.280;19.160;2023-06-26T07:05:08;11.98;;;6.82;;
66856;SDS011;53766;50.280;19.160;2023-06-26T07:07:36;15.98;;;6.28;;
66856;SDS011;53766;50.280;19.160;2023-06-26T07:10:06;9.80;;;6.20;;
66856;SDS011;53766;50.280;19.160;2023-06-26T07:12:37;12.82;;;6.95;;
66856;SDS011;53766;50.280;19.160;2023-06-26T07:15:05;9.27;;;6.35;;
66856;SDS011;53766;50.280;19.160;2023-06-26T07:17:34;11.55;;;6.55;;
66856;SDS011;53766;50.280;19.160;2023-06-26T07:20:02;10.63;;;6.38;;
66856;SDS011;53766;50.280;19.160;2023-06-26T07:25:05;10.90;;;6.50;;
66856;SDS011;53766;50.280;19.160;2023-06-26T07:27:37;9.88;;;6.20;;
66856;SDS011;53766;50.280;19.160;2023-06-26T07:30:06;11.13;;;6.18;;
66856;SDS011;53766;50.280;19.160;2023-06-26T07:32:37;10.23;;;6.28;;
66856;SDS011;53766;50.280;19.160;2023-06-26T07:35:05;12.68;;;6.60;;
66856;SDS011;53766;50.280;19.160;2023-06-26T07:37:32;12.10;;;6.65;;
66856;SDS011;53766;50.280;19.160;2023-06-26T07:40:00;12.55;;;6.60;;
66856;SDS011;53766;50.280;19.160;2023-06-26T07:42:28;11.80;;;6.22;;
66856;SDS011;53766;50.280;19.160;2023-06-26T07:44:56;10.15;;;6.25;;
66856;SDS011;53766;50.280;19.160;2023-06-26T07:47:23;8.45;;;5.85;;
66856;SDS011;53766;50.280;19.160;2023-06-26T07:49:51;9.25;;;6.20;;
66856;SDS011;53766;50.280;19.160;2023-06-26T07:52:19;11.45;;;5.93;;
66856;SDS011;53766;50.280;19.160;2023-06-26T07:54:46;10.52;;;5.93;;
66856;SDS011;53766;50.280;19.160;2023-06-26T07:57:14;10.55;;;5.80;;
66856;SDS011;53766;50.280;19.160;2023-06-26T07:59:41;10.75;;;6.45;;
66856;SDS011;53766;50.280;19.160;2023-06-26T08:02:09;10.50;;;5.82;;
66856;SDS011;53766;50.280;19.160;2023-06-26T08:04:36;9.50;;;5.65;;
66856;SDS011;53766;50.280;19.160;2023-06-26T08:07:04;9.00;;;5.53;;
66856;SDS011;53766;50.280;19.160;2023-06-26T08:09:33;10.65;;;5.80;;
66856;SDS011;53766;50.280;19.160;2023-06-26T08:12:00;10.68;;;5.70;;
66856;SDS011;53766;50.280;19.160;2023-06-26T08:14:28;10.43;;;5.70;;
66856;SDS011;53766;50.280;19.160;2023-06-26T08:16:56;10.68;;;5.63;;
66856;SDS011;53766;50.280;19.160;2023-06-26T08:19:24;10.05;;;5.72;;
66856;SDS011;53766;50.280;19.160;2023-06-26T08:21:51;8.68;;;5.50;;
66856;SDS011;53766;50.280;19.160;2023-06-26T08:24:20;8.60;;;4.80;;
66856;SDS011;53766;50.280;19.160;2023-06-26T08:26:47;9.10;;;5.30;;
66856;SDS011;53766;50.280;19.160;2023-06-26T08:29:15;9.85;;;5.10;;
66856;SDS011;53766;50.280;19.160;2023-06-26T08:31:43;8.07;;;4.93;;
66856;SDS011;53766;50.280;19.160;2023-06-26T08:34:11;7.93;;;5.07;;
66856;SDS011;53766;50.280;19.160;2023-06-26T08:36:38;8.75;;;4.88;;
66856;SDS011;53766;50.280;19.160;2023-06-26T08:39:06;8.32;;;4.95;;
66856;SDS011;53766;50.280;19.160;2023-06-26T08:41:35;8.23;;;4.75;;
66856;SDS011;53766;50.280;19.160;2023-06-26T08:44:03;7.80;;;5.00;;
66856;SDS011;53766;50.280;19.160;2023-06-26T08:46:31;9.45;;;5.40;;
66856;SDS011;53766;50.280;19.160;2023-06-26T08:49:23;9.63;;;5.03;;
66856;SDS011;53766;50.280;19.160;2023-06-26T08:52:10;8.82;;;5.05;;
66856;SDS011;53766;50.280;19.160;2023-06-26T08:54:50;7.20;;;4.75;;
66856;SDS011;53766;50.280;19.160;2023-06-26T08:57:22;8.35;;;5.22;;
66856;SDS011;53766;50.280;19.160;2023-06-26T08:59:51;7.97;;;4.57;;
66856;SDS011;53766;50.280;19.160;2023-06-26T09:02:19;6.68;;;4.25;;
66856;SDS011;53766;50.280;19.160;2023-06-26T09:04:50;7.90;;;4.70;;
66856;SDS011;53766;50.280;19.160;2023-06-26T09:07:17;7.15;;;4.43;;
66856;SDS011;53766;50.280;19.160;2023-06-26T09:09:45;7.32;;;4.20;;
66856;SDS011;53766;50.280;19.160;2023-06-26T09:12:13;9.45;;;4.50;;
66856;SDS011;53766;50.280;19.160;2023-06-26T09:14:41;6.93;;;4.72;;
66856;SDS011;53766;50.280;19.160;2023-06-26T09:17:09;6.55;;;4.60;;
66856;SDS011;53766;50.280;19.160;2023-06-26T09:19:37;6.03;;;4.18;;
66856;SDS011;53766;50.280;19.160;2023-06-26T09:22:10;5.35;;;4.07;;
66856;SDS011;53766;50.280;19.160;2023-06-26T09:24:41;5.78;;;4.55;;
66856;SDS011;53766;50.280;19.160;2023-06-26T09:27:10;5.80;;;4.07;;
66856;SDS011;53766;50.280;19.160;2023-06-26T09:29:39;6.93;;;4.55;;
66856;SDS011;53766;50.280;19.160;2023-06-26T09:32:09;6.20;;;4.45;;
66856;SDS011;53766;50.280;19.160;2023-06-26T09:34:37;6.68;;;4.45;;
66856;SDS011;53766;50.280;19.160;2023-06-26T09:37:08;6.97;;;4.07;;
66856;SDS011;53766;50.280;19.160;2023-06-26T09:39:41;5.93;;;4.00;;
66856;SDS011;53766;50.280;19.160;2023-06-26T09:42:08;6.25;;;4.25;;
66856;SDS011;53766;50.280;19.160;2023-06-26T09:44:37;7.60;;;4.10;;
66856;SDS011;53766;50.280;19.160;2023-06-26T09:47:10;5.73;;;4.43;;
66856;SDS011;53766;50.280;19.160;2023-06-26T09:49:40;7.25;;;4.25;;
66856;SDS011;53766;50.280;19.160;2023-06-26T09:52:09;7.20;;;4.38;;
66856;SDS011;53766;50.280;19.160;2023-06-26T09:54:40;10.70;;;4.75;;
66856;SDS011;53766;50.280;19.160;2023-06-26T09:57:08;8.00;;;4.40;;
66856;SDS011;53766;50.280;19.160;2023-06-26T09:59:37;6.80;;;4.18;;
66856;SDS011;53766;50.280;19.160;2023-06-26T10:02:05;5.80;;;4.20;;
66856;SDS011;53766;50.280;19.160;2023-06-26T10:04:37;6.68;;;4.38;;
66856;SDS011;53766;50.280;19.160;2023-06-26T10:07:06;5.43;;;3.78;;
66856;SDS011;53766;50.280;19.160;2023-06-26T10:09:36;7.85;;;4.30;;
66856;SDS011;53766;50.280;19.160;2023-06-26T10:12:18;8.82;;;4.00;;
66856;SDS011;53766;50.280;19.160;2023-06-26T10:14:50;8.63;;;4.35;;
66856;SDS011;53766;50.280;19.160;2023-06-26T10:17:19;7.20;;;4.65;;
66856;SDS011;53766;50.280;19.160;2023-06-26T10:19:49;7.18;;;4.35;;
66856;SDS011;53766;50.280;19.160;2023-06-26T10:22:20;6.22;;;4.15;;
66856;SDS011;53766;50.280;19.160;2023-06-26T10:24:49;6.93;;;4.28;;
66856;SDS011;53766;50.280;19.160;2023-06-26T10:27:19;7.18;;;4.00;;
66856;SDS011;53766;50.280;19.160;2023-06-26T10:29:58;6.28;;;3.97;;
66856;SDS011;53766;50.280;19.160;2023-06-26T10:32:30;6.47;;;4.18;;
66856;SDS011;53766;50.280;19.160;2023-06-26T10:34:59;6.95;;;3.92;;
66856;SDS011;53766;50.280;19.160;2023-06-26T10:40:26;5.05;;;3.65;;
66856;SDS011;53766;50.280;19.160;2023-06-26T10:43:08;5.88;;;4.03;;
66856;SDS011;53766;50.280;19.160;2023-06-26T10:45:37;6.05;;;3.85;;
66856;SDS011;53766;50.280;19.160;2023-06-26T10:48:12;8.68;;;4.30;;
66856;SDS011;53766;50.280;19.160;2023-06-26T10:50:41;5.30;;;4.03;;
66856;SDS011;53766;50.280;19.160;2023-06-26T10:55:42;6.72;;;4.10;;
66856;SDS011;53766;50.280;19.160;2023-06-26T10:58:30;6.18;;;4.20;;
66856;SDS011;53766;50.280;19.160;2023-06-26T11:03:39;8.70;;;4.15;;
66856;SDS011;53766;50.280;19.160;2023-06-26T11:06:09;5.65;;;3.95;;
66856;SDS011;53766;50.280;19.160;2023-06-26T11:08:44;6.20;;;3.88;;
66856;SDS011;53766;50.280;19.160;2023-06-26T11:11:22;7.57;;;4.97;;
66856;SDS011;53766;50.280;19.160;2023-06-26T11:14:24;5.85;;;3.88;;
66856;SDS011;53766;50.280;19.160;2023-06-26T11:16:55;6.00;;;4.10;;
66856;SDS011;53766;50.280;19.160;2023-06-26T11:19:22;6.88;;;3.90;;
66856;SDS011;53766;50.280;19.160;2023-06-26T11:21:57;7.35;;;4.72;;
66856;SDS011;53766;50.280;19.160;2023-06-26T11:24:26;5.93;;;4.38;;
66856;SDS011;53766;50.280;19.160;2023-06-26T11:26:53;7.70;;;4.03;;
66856;SDS011;53766;50.280;19.160;2023-06-26T11:29:26;5.57;;;4.25;;
66856;SDS011;53766;50.280;19.160;2023-06-26T11:31:58;4.85;;;3.65;;
66856;SDS011;53766;50.280;19.160;2023-06-26T11:34:31;8.50;;;4.18;;
66856;SDS011;53766;50.280;19.160;2023-06-26T11:37:02;7.00;;;4.25;;
66856;SDS011;53766;50.280;19.160;2023-06-26T11:39:30;6.80;;;3.70;;
66856;SDS011;53766;50.280;19.160;2023-06-26T11:41:59;5.97;;;3.85;;
66856;SDS011;53766;50.280;19.160;2023-06-26T11:44:30;5.57;;;3.97;;
66856;SDS011;53766;50.280;19.160;2023-06-26T11:46:59;8.50;;;4.38;;
66856;SDS011;53766;50.280;19.160;2023-06-26T11:49:26;5.38;;;3.95;;
66856;SDS011;53766;50.280;19.160;2023-06-26T11:51:56;5.70;;;4.25;;
66856;SDS011;53766;50.280;19.160;2023-06-26T11:54:24;4.97;;;4.10;;
66856;SDS011;53766;50.280;19.160;2023-06-26T11:56:57;5.75;;;4.10;;
66856;SDS011;53766;50.280;19.160;2023-06-26T11:59:35;5.70;;;4.25;;
66856;SDS011;53766;50.280;19.160;2023-06-26T12:02:04;7.43;;;4.53;;
66856;SDS011;53766;50.280;19.160;2023-06-26T12:04:34;5.68;;;4.00;;
66856;SDS011;53766;50.280;19.160;2023-06-26T12:07:05;5.45;;;3.95;;
66856;SDS011;53766;50.280;19.160;2023-06-26T12:09:40;8.13;;;4.30;;
66856;SDS011;53766;50.280;19.160;2023-06-26T12:12:11;6.57;;;3.95;;
66856;SDS011;53766;50.280;19.160;2023-06-26T12:14:41;5.95;;;3.70;;
66856;SDS011;53766;50.280;19.160;2023-06-26T12:17:12;6.53;;;4.22;;
66856;SDS011;53766;50.280;19.160;2023-06-26T12:19:46;5.10;;;4.05;;
66856;SDS011;53766;50.280;19.160;2023-06-26T12:22:18;5.75;;;4.00;;
66856;SDS011;53766;50.280;19.160;2023-06-26T12:24:46;6.55;;;4.10;;
66856;SDS011;53766;50.280;19.160;2023-06-26T12:27:15;6.82;;;3.95;;
66856;SDS011;53766;50.280;19.160;2023-06-26T12:29:47;6.80;;;4.15;;
66856;SDS011;53766;50.280;19.160;2023-06-26T12:32:18;6.22;;;4.20;;
66856;SDS011;53766;50.280;19.160;2023-06-26T12:34:47;6.68;;;4.30;;
66856;SDS011;53766;50.280;19.160;2023-06-26T12:37:17;5.57;;;3.97;;
66856;SDS011;53766;50.280;19.160;2023-06-26T12:39:53;8.18;;;4.28;;
66856;SDS011;53766;50.280;19.160;2023-06-26T12:42:23;5.43;;;4.20;;
66856;SDS011;53766;50.280;19.160;2023-06-26T12:44:55;6.55;;;4.38;;
66856;SDS011;53766;50.280;19.160;2023-06-26T12:47:26;7.10;;;4.28;;
66856;SDS011;53766;50.280;19.160;2023-06-26T12:49:55;9.30;;;4.35;;
66856;SDS011;53766;50.280;19.160;2023-06-26T12:52:25;6.70;;;4.50;;
66856;SDS011;53766;50.280;19.160;2023-06-26T12:54:53;6.35;;;4.22;;
66856;SDS011;53766;50.280;19.160;2023-06-26T12:57:23;5.63;;;4.10;;
66856;SDS011;53766;50.280;19.160;2023-06-26T12:59:51;7.07;;;4.28;;
66856;SDS011;53766;50.280;19.160;2023-06-26T13:02:20;5.28;;;4.15;;
66856;SDS011;53766;50.280;19.160;2023-06-26T13:04:47;8.55;;;4.03;;
66856;SDS011;53766;50.280;19.160;2023-06-26T13:07:15;6.47;;;4.15;;
66856;SDS011;53766;50.280;19.160;2023-06-26T13:09:43;5.20;;;4.15;;
66856;SDS011;53766;50.280;19.160;2023-06-26T13:12:12;5.00;;;4.10;;
66856;SDS011;53766;50.280;19.160;2023-06-26T13:14:40;7.72;;;4.50;;
66856;SDS011;53766;50.280;19.160;2023-06-26T13:17:08;4.85;;;4.07;;
66856;SDS011;53766;50.280;19.160;2023-06-26T13:19:36;6.13;;;4.20;;
66856;SDS011;53766;50.280;19.160;2023-06-26T13:22:04;4.88;;;4.05;;
66856;SDS011;53766;50.280;19.160;2023-06-26T13:24:31;5.82;;;4.15;;
66856;SDS011;53766;50.280;19.160;2023-06-26T13:26:59;5.78;;;4.10;;
66856;SDS011;53766;50.280;19.160;2023-06-26T13:29:27;6.00;;;4.05;;
66856;SDS011;53766;50.280;19.160;2023-06-26T13:31:54;6.80;;;4.07;;
66856;SDS011;53766;50.280;19.160;2023-06-26T13:34:23;6.38;;;4.40;;
66856;SDS011;53766;50.280;19.160;2023-06-26T13:36:56;7.03;;;4.43;;
66856;SDS011;53766;50.280;19.160;2023-06-26T13:39:23;6.68;;;4.32;;
66856;SDS011;53766;50.280;19.160;2023-06-26T13:41:51;5.85;;;4.35;;
66856;SDS011;53766;50.280;19.160;2023-06-26T13:44:18;6.53;;;4.72;;
66856;SDS011;53766;50.280;19.160;2023-06-26T13:47:05;5.80;;;4.13;;
66856;SDS011;53766;50.280;19.160;2023-06-26T13:49:35;11.73;;;4.55;;
66856;SDS011;53766;50.280;19.160;2023-06-26T13:52:03;7.53;;;4.63;;
66856;SDS011;53766;50.280;19.160;2023-06-26T13:54:31;5.88;;;4.38;;
66856;SDS011;53766;50.280;19.160;2023-06-26T13:56:58;8.15;;;4.55;;
66856;SDS011;53766;50.280;19.160;2023-06-26T13:59:29;8.05;;;4.50;;
66856;SDS011;53766;50.280;19.160;2023-06-26T14:01:57;6.47;;;4.88;;
66856;SDS011;53766;50.280;19.160;2023-06-26T14:04:24;9.10;;;4.38;;
66856;SDS011;53766;50.280;19.160;2023-06-26T14:06:52;6.63;;;4.50;;
66856;SDS011;53766;50.280;19.160;2023-06-26T14:09:20;8.15;;;4.57;;
66856;SDS011;53766;50.280;19.160;2023-06-26T14:11:47;5.88;;;4.30;;
66856;SDS011;53766;50.280;19.160;2023-06-26T14:14:15;5.97;;;4.60;;
66856;SDS011;53766;50.280;19.160;2023-06-26T14:16:42;5.60;;;4.18;;
66856;SDS011;53766;50.280;19.160;2023-06-26T14:19:10;7.25;;;4.22;;
66856;SDS011;53766;50.280;19.160;2023-06-26T14:21:43;6.78;;;4.50;;
66856;SDS011;53766;50.280;19.160;2023-06-26T14:24:10;5.63;;;4.10;;
66856;SDS011;53766;50.280;19.160;2023-06-26T14:26:38;5.72;;;4.30;;
66856;SDS011;53766;50.280;19.160;2023-06-26T14:29:06;5.57;;;4.50;;
66856;SDS011;53766;50.280;19.160;2023-06-26T14:31:34;6.10;;;3.83;;
66856;SDS011;53766;50.280;19.160;2023-06-26T14:34:01;5.45;;;4.10;;
66856;SDS011;53766;50.280;19.160;2023-06-26T14:36:30;5.80;;;4.35;;
66856;SDS011;53766;50.280;19.160;2023-06-26T14:38:59;6.00;;;4.43;;
66856;SDS011;53766;50.280;19.160;2023-06-26T14:41:29;6.07;;;4.60;;
66856;SDS011;53766;50.280;19.160;2023-06-26T14:43:57;5.80;;;4.28;;
66856;SDS011;53766;50.280;19.160;2023-06-26T14:46:25;5.90;;;4.15;;
66856;SDS011;53766;50.280;19.160;2023-06-26T14:48:53;7.30;;;4.40;;
66856;SDS011;53766;50.280;19.160;2023-06-26T14:51:22;5.13;;;3.85;;
66856;SDS011;53766;50.280;19.160;2023-06-26T14:53:50;5.80;;;4.05;;
66856;SDS011;53766;50.280;19.160;2023-06-26T14:56:18;5.15;;;4.35;;
66856;SDS011;53766;50.280;19.160;2023-06-26T14:58:45;6.13;;;4.05;;
66856;SDS011;53766;50.280;19.160;2023-06-26T15:01:16;6.03;;;4.22;;
66856;SDS011;53766;50.280;19.160;2023-06-26T15:03:43;6.85;;;4.43;;